MMMY/MTY METAR and TAF weather

Enter ICAO airport designator
Station Type Date Time Source
MMMY METAR 2024/04/17 17:40 UTC NOAA

MMMY 171740Z 11009KT 5SM FEW020 BKN100 29/22 A2989 RMK SLP/// 5//// 9// 8/530 HZY


Station Type Date Time Source
MMMY Decoded METAR 2024/04/17 17:40 UTC NOAA

Monterrey / Gen Maria, Mexico (MMMY) 25-47N 100-06W
Apr 17, 2024 - 01:40 PM EDT / 2024.04.17 1740 UTC
Wind: from the ESE (110 degrees) at 10 MPH (9 KT):0
Visibility: 5 mile(s):0
Sky conditions: mostly cloudy
Temperature: 84 F (29 C)
Dew Point: 71 F (22 C)
Relative Humidity: 65%
Pressure (altimeter): 29.89 in. Hg (1012 hPa)
ob: MMMY 171740Z 11009KT 5SM FEW020 BKN100 29/22 A2989 RMK SLP/// 5//// 9// 8/530 HZY
cycle: 17

Station Type Date Time Source
MMMY TAF 2024/04/17 18:39 UTC NOAA